sensor_id;sensor_type;location;lat;lon;timestamp;P1;durP1;ratioP1;P2;durP2;ratioP2
41623;SDS011;27319;50.306;18.926;2024-01-15T00:00:31;21.63;;;11.02;;
41623;SDS011;27319;50.306;18.926;2024-01-15T00:03:52;25.17;;;11.35;;
41623;SDS011;27319;50.306;18.926;2024-01-15T00:06:53;21.25;;;9.55;;
41623;SDS011;27319;50.306;18.926;2024-01-15T00:09:54;20.77;;;10.63;;
41623;SDS011;27319;50.306;18.926;2024-01-15T00:12:55;20.08;;;10.15;;
41623;SDS011;27319;50.306;18.926;2024-01-15T00:16:56;20.13;;;9.70;;
41623;SDS011;27319;50.306;18.926;2024-01-15T00:20:56;22.42;;;10.18;;
41623;SDS011;27319;50.306;18.926;2024-01-15T00:24:57;16.38;;;9.30;;
41623;SDS011;27319;50.306;18.926;2024-01-15T00:28:58;17.92;;;9.07;;
41623;SDS011;27319;50.306;18.926;2024-01-15T00:32:59;18.48;;;9.13;;
41623;SDS011;27319;50.306;18.926;2024-01-15T00:37:00;19.02;;;9.70;;
41623;SDS011;27319;50.306;18.926;2024-01-15T00:41:00;16.17;;;9.25;;
41623;SDS011;27319;50.306;18.926;2024-01-15T00:45:01;19.60;;;10.05;;
41623;SDS011;27319;50.306;18.926;2024-01-15T00:49:02;17.77;;;9.05;;
41623;SDS011;27319;50.306;18.926;2024-01-15T00:53:03;17.73;;;9.02;;
41623;SDS011;27319;50.306;18.926;2024-01-15T00:57:04;20.63;;;9.05;;
41623;SDS011;27319;50.306;18.926;2024-01-15T01:01:05;17.65;;;8.75;;
41623;SDS011;27319;50.306;18.926;2024-01-15T01:05:06;16.75;;;8.43;;
41623;SDS011;27319;50.306;18.926;2024-01-15T01:09:07;14.68;;;7.45;;
41623;SDS011;27319;50.306;18.926;2024-01-15T01:13:07;20.27;;;10.02;;
41623;SDS011;27319;50.306;18.926;2024-01-15T01:17:08;22.42;;;12.38;;
41623;SDS011;27319;50.306;18.926;2024-01-15T01:21:09;31.75;;;15.45;;
41623;SDS011;27319;50.306;18.926;2024-01-15T01:25:10;20.95;;;9.95;;
41623;SDS011;27319;50.306;18.926;2024-01-15T01:29:11;17.48;;;9.07;;
41623;SDS011;27319;50.306;18.926;2024-01-15T01:33:12;19.50;;;8.77;;
41623;SDS011;27319;50.306;18.926;2024-01-15T01:37:12;15.90;;;8.82;;
41623;SDS011;27319;50.306;18.926;2024-01-15T01:41:13;16.23;;;8.45;;
41623;SDS011;27319;50.306;18.926;2024-01-15T01:45:14;16.40;;;7.88;;
41623;SDS011;27319;50.306;18.926;2024-01-15T01:49:15;17.77;;;8.07;;
41623;SDS011;27319;50.306;18.926;2024-01-15T01:53:16;15.88;;;7.78;;
41623;SDS011;27319;50.306;18.926;2024-01-15T01:57:16;16.38;;;9.70;;
41623;SDS011;27319;50.306;18.926;2024-01-15T15:06:15;34.22;;;15.18;;
41623;SDS011;27319;50.306;18.926;2024-01-15T15:09:16;43.05;;;17.27;;
41623;SDS011;27319;50.306;18.926;2024-01-15T15:12:17;53.60;;;19.15;;
41623;SDS011;27319;50.306;18.926;2024-01-15T15:15:18;41.25;;;16.63;;
41623;SDS011;27319;50.306;18.926;2024-01-15T15:18:19;30.33;;;13.55;;
41623;SDS011;27319;50.306;18.926;2024-01-15T15:22:16;27.05;;;12.23;;
41623;SDS011;27319;50.306;18.926;2024-01-15T15:26:16;26.35;;;11.65;;
41623;SDS011;27319;50.306;18.926;2024-01-15T15:30:11;28.23;;;13.02;;
41623;SDS011;27319;50.306;18.926;2024-01-15T15:33:13;29.10;;;13.10;;
41623;SDS011;27319;50.306;18.926;2024-01-15T15:36:14;32.03;;;13.02;;
41623;SDS011;27319;50.306;18.926;2024-01-15T15:39:15;20.33;;;10.23;;
41623;SDS011;27319;50.306;18.926;2024-01-15T15:42:16;30.35;;;13.90;;
41623;SDS011;27319;50.306;18.926;2024-01-15T15:45:52;36.92;;;15.77;;
41623;SDS011;27319;50.306;18.926;2024-01-15T15:48:53;31.27;;;14.82;;
41623;SDS011;27319;50.306;18.926;2024-01-15T15:51:54;31.50;;;15.02;;
41623;SDS011;27319;50.306;18.926;2024-01-15T15:54:54;43.88;;;19.75;;
41623;SDS011;27319;50.306;18.926;2024-01-15T15:57:56;42.45;;;18.08;;
41623;SDS011;27319;50.306;18.926;2024-01-15T16:00:56;37.88;;;16.50;;
41623;SDS011;27319;50.306;18.926;2024-01-15T16:04:57;51.50;;;20.98;;
41623;SDS011;27319;50.306;18.926;2024-01-15T16:08:58;34.33;;;15.68;;
41623;SDS011;27319;50.306;18.926;2024-01-15T16:11:59;31.77;;;15.82;;
41623;SDS011;27319;50.306;18.926;2024-01-15T16:15:00;42.28;;;18.85;;
41623;SDS011;27319;50.306;18.926;2024-01-15T16:18:01;43.53;;;18.38;;
41623;SDS011;27319;50.306;18.926;2024-01-15T16:21:02;52.53;;;19.25;;
41623;SDS011;27319;50.306;18.926;2024-01-15T16:24:03;47.47;;;16.67;;
41623;SDS011;27319;50.306;18.926;2024-01-15T16:27:24;68.60;;;23.48;;
41623;SDS011;27319;50.306;18.926;2024-01-15T16:30:24;86.80;;;29.48;;
41623;SDS011;27319;50.306;18.926;2024-01-15T16:33:25;75.15;;;25.08;;
41623;SDS011;27319;50.306;18.926;2024-01-15T16:36:26;62.45;;;20.98;;
41623;SDS011;27319;50.306;18.926;2024-01-15T16:39:28;70.15;;;25.02;;
41623;SDS011;27319;50.306;18.926;2024-01-15T16:42:29;45.92;;;17.23;;
41623;SDS011;27319;50.306;18.926;2024-01-15T16:45:30;40.17;;;15.52;;
41623;SDS011;27319;50.306;18.926;2024-01-15T16:48:31;69.53;;;23.38;;
41623;SDS011;27319;50.306;18.926;2024-01-15T16:51:32;39.65;;;16.58;;
41623;SDS011;27319;50.306;18.926;2024-01-15T16:54:33;60.00;;;25.15;;
41623;SDS011;27319;50.306;18.926;2024-01-15T16:57:35;43.67;;;18.73;;
41623;SDS011;27319;50.306;18.926;2024-01-15T17:00:37;59.65;;;23.38;;
41623;SDS011;27319;50.306;18.926;2024-01-15T17:03:37;42.45;;;18.23;;
41623;SDS011;27319;50.306;18.926;2024-01-15T17:07:38;37.22;;;14.75;;
41623;SDS011;27319;50.306;18.926;2024-01-15T17:11:39;28.27;;;12.32;;
41623;SDS011;27319;50.306;18.926;2024-01-15T17:15:40;25.48;;;12.38;;
41623;SDS011;27319;50.306;18.926;2024-01-15T17:19:41;21.85;;;9.77;;
41623;SDS011;27319;50.306;18.926;2024-01-15T17:23:42;18.50;;;8.85;;
41623;SDS011;27319;50.306;18.926;2024-01-15T17:27:42;25.95;;;10.90;;
41623;SDS011;27319;50.306;18.926;2024-01-15T17:31:45;20.85;;;9.98;;
41623;SDS011;27319;50.306;18.926;2024-01-15T17:35:54;24.30;;;9.98;;
41623;SDS011;27319;50.306;18.926;2024-01-15T17:39:51;23.83;;;10.73;;
41623;SDS011;27319;50.306;18.926;2024-01-15T17:43:52;23.98;;;11.20;;
41623;SDS011;27319;50.306;18.926;2024-01-15T17:47:53;31.52;;;11.73;;
41623;SDS011;27319;50.306;18.926;2024-01-15T17:51:53;20.70;;;10.40;;
41623;SDS011;27319;50.306;18.926;2024-01-15T17:55:54;22.02;;;10.70;;
41623;SDS011;27319;50.306;18.926;2024-01-15T17:59:55;20.70;;;10.75;;
41623;SDS011;27319;50.306;18.926;2024-01-15T18:03:56;26.55;;;11.73;;
41623;SDS011;27319;50.306;18.926;2024-01-15T18:07:57;23.08;;;10.95;;
41623;SDS011;27319;50.306;18.926;2024-01-15T18:11:58;25.58;;;12.48;;
41623;SDS011;27319;50.306;18.926;2024-01-15T18:15:59;21.73;;;10.93;;
41623;SDS011;27319;50.306;18.926;2024-01-15T18:20:00;30.63;;;14.77;;
41623;SDS011;27319;50.306;18.926;2024-01-15T18:23:20;25.05;;;12.43;;
41623;SDS011;27319;50.306;18.926;2024-01-15T18:26:22;20.40;;;10.75;;
41623;SDS011;27319;50.306;18.926;2024-01-15T18:29:22;23.15;;;9.43;;
41623;SDS011;27319;50.306;18.926;2024-01-15T18:32:24;23.88;;;11.38;;
41623;SDS011;27319;50.306;18.926;2024-01-15T18:36:25;21.15;;;10.13;;
41623;SDS011;27319;50.306;18.926;2024-01-15T18:40:26;26.33;;;12.65;;
41623;SDS011;27319;50.306;18.926;2024-01-15T18:44:27;24.38;;;11.15;;
41623;SDS011;27319;50.306;18.926;2024-01-15T18:48:27;26.75;;;13.00;;
41623;SDS011;27319;50.306;18.926;2024-01-15T18:52:10;22.90;;;12.38;;
41623;SDS011;27319;50.306;18.926;2024-01-15T18:55:16;20.85;;;10.15;;
41623;SDS011;27319;50.306;18.926;2024-01-15T18:58:18;25.80;;;11.45;;
41623;SDS011;27319;50.306;18.926;2024-01-15T19:02:19;25.13;;;11.30;;
41623;SDS011;27319;50.306;18.926;2024-01-15T19:06:20;26.45;;;12.45;;
41623;SDS011;27319;50.306;18.926;2024-01-15T19:10:21;27.60;;;12.88;;
41623;SDS011;27319;50.306;18.926;2024-01-15T19:14:22;23.65;;;10.45;;
41623;SDS011;27319;50.306;18.926;2024-01-15T19:18:23;22.65;;;10.35;;
41623;SDS011;27319;50.306;18.926;2024-01-15T19:21:23;37.20;;;15.75;;
41623;SDS011;27319;50.306;18.926;2024-01-15T19:24:24;24.88;;;12.85;;
41623;SDS011;27319;50.306;18.926;2024-01-15T19:27:25;25.42;;;11.32;;
41623;SDS011;27319;50.306;18.926;2024-01-15T19:31:26;24.02;;;12.45;;
41623;SDS011;27319;50.306;18.926;2024-01-15T19:35:27;27.92;;;12.73;;
41623;SDS011;27319;50.306;18.926;2024-01-15T19:38:28;28.08;;;12.63;;
41623;SDS011;27319;50.306;18.926;2024-01-15T19:41:30;28.17;;;13.30;;
41623;SDS011;27319;50.306;18.926;2024-01-15T19:45:31;34.08;;;14.63;;
41623;SDS011;27319;50.306;18.926;2024-01-15T19:48:31;33.10;;;14.73;;
41623;SDS011;27319;50.306;18.926;2024-01-15T19:51:33;39.97;;;14.98;;
41623;SDS011;27319;50.306;18.926;2024-01-15T19:54:33;34.72;;;13.80;;
41623;SDS011;27319;50.306;18.926;2024-01-15T19:57:34;45.72;;;18.65;;
41623;SDS011;27319;50.306;18.926;2024-01-15T20:00:35;49.05;;;17.00;;
41623;SDS011;27319;50.306;18.926;2024-01-15T20:04:36;38.92;;;16.35;;
41623;SDS011;27319;50.306;18.926;2024-01-15T20:08:37;41.47;;;16.75;;
41623;SDS011;27319;50.306;18.926;2024-01-15T20:12:38;55.60;;;23.10;;
41623;SDS011;27319;50.306;18.926;2024-01-15T20:16:38;56.75;;;22.35;;
41623;SDS011;27319;50.306;18.926;2024-01-15T20:20:39;50.15;;;20.23;;
41623;SDS011;27319;50.306;18.926;2024-01-15T20:24:40;49.83;;;17.67;;
41623;SDS011;27319;50.306;18.926;2024-01-15T20:28:41;54.88;;;23.23;;
41623;SDS011;27319;50.306;18.926;2024-01-15T20:32:41;37.50;;;16.83;;
41623;SDS011;27319;50.306;18.926;2024-01-15T20:36:42;57.40;;;26.65;;
41623;SDS011;27319;50.306;18.926;2024-01-15T20:40:43;39.55;;;17.92;;
41623;SDS011;27319;50.306;18.926;2024-01-15T20:44:44;40.15;;;16.98;;
41623;SDS011;27319;50.306;18.926;2024-01-15T20:48:44;30.30;;;14.40;;
41623;SDS011;27319;50.306;18.926;2024-01-15T20:51:47;36.17;;;17.23;;
41623;SDS011;27319;50.306;18.926;2024-01-15T20:54:48;27.38;;;13.75;;
41623;SDS011;27319;50.306;18.926;2024-01-15T20:57:49;33.28;;;15.52;;
41623;SDS011;27319;50.306;18.926;2024-01-15T21:00:50;34.58;;;16.23;;
41623;SDS011;27319;50.306;18.926;2024-01-15T21:03:50;24.77;;;11.95;;
41623;SDS011;27319;50.306;18.926;2024-01-15T21:06:51;30.50;;;12.18;;
41623;SDS011;27319;50.306;18.926;2024-01-15T21:09:53;29.15;;;12.80;;
41623;SDS011;27319;50.306;18.926;2024-01-15T21:12:54;27.17;;;11.95;;
41623;SDS011;27319;50.306;18.926;2024-01-15T21:15:55;33.00;;;13.57;;
41623;SDS011;27319;50.306;18.926;2024-01-15T21:18:56;51.22;;;18.92;;
41623;SDS011;27319;50.306;18.926;2024-01-15T21:21:57;55.20;;;21.67;;
41623;SDS011;27319;50.306;18.926;2024-01-15T21:24:58;41.45;;;17.17;;
41623;SDS011;27319;50.306;18.926;2024-01-15T21:27:59;45.95;;;16.92;;
41623;SDS011;27319;50.306;18.926;2024-01-15T21:31:00;56.67;;;23.30;;
41623;SDS011;27319;50.306;18.926;2024-01-15T21:35:01;52.65;;;20.83;;
41623;SDS011;27319;50.306;18.926;2024-01-15T21:39:01;42.72;;;18.50;;
41623;SDS011;27319;50.306;18.926;2024-01-15T21:43:05;42.95;;;18.30;;
41623;SDS011;27319;50.306;18.926;2024-01-15T21:47:05;37.13;;;17.17;;
41623;SDS011;27319;50.306;18.926;2024-01-15T21:50:07;49.90;;;20.85;;
41623;SDS011;27319;50.306;18.926;2024-01-15T21:53:11;60.95;;;22.52;;
41623;SDS011;27319;50.306;18.926;2024-01-15T21:56:16;88.00;;;33.88;;
41623;SDS011;27319;50.306;18.926;2024-01-15T21:59:17;62.15;;;24.23;;
41623;SDS011;27319;50.306;18.926;2024-01-15T22:03:18;86.90;;;28.35;;
41623;SDS011;27319;50.306;18.926;2024-01-15T22:07:19;60.78;;;22.35;;
41623;SDS011;27319;50.306;18.926;2024-01-15T22:11:20;58.38;;;21.25;;
41623;SDS011;27319;50.306;18.926;2024-01-15T22:15:20;45.20;;;15.88;;
41623;SDS011;27319;50.306;18.926;2024-01-15T22:18:22;42.13;;;16.02;;
41623;SDS011;27319;50.306;18.926;2024-01-15T22:21:23;36.97;;;15.52;;
41623;SDS011;27319;50.306;18.926;2024-01-15T22:24:23;30.75;;;15.10;;
41623;SDS011;27319;50.306;18.926;2024-01-15T22:27:24;44.95;;;16.77;;
41623;SDS011;27319;50.306;18.926;2024-01-15T22:30:25;40.50;;;14.60;;
41623;SDS011;27319;50.306;18.926;2024-01-15T22:33:26;45.22;;;16.40;;
41623;SDS011;27319;50.306;18.926;2024-01-15T22:36:27;22.90;;;10.02;;
41623;SDS011;27319;50.306;18.926;2024-01-15T22:39:28;18.08;;;9.30;;
41623;SDS011;27319;50.306;18.926;2024-01-15T22:42:29;41.13;;;14.90;;
41623;SDS011;27319;50.306;18.926;2024-01-15T22:46:30;33.70;;;12.15;;
41623;SDS011;27319;50.306;18.926;2024-01-15T22:50:30;37.20;;;13.38;;
41623;SDS011;27319;50.306;18.926;2024-01-15T22:54:31;24.63;;;10.57;;
41623;SDS011;27319;50.306;18.926;2024-01-15T22:57:32;26.58;;;12.20;;
41623;SDS011;27319;50.306;18.926;2024-01-15T23:00:33;42.03;;;14.48;;
41623;SDS011;27319;50.306;18.926;2024-01-15T23:03:34;32.13;;;13.10;;
41623;SDS011;27319;50.306;18.926;2024-01-15T23:06:35;29.10;;;10.60;;
41623;SDS011;27319;50.306;18.926;2024-01-15T23:09:35;28.48;;;12.55;;
41623;SDS011;27319;50.306;18.926;2024-01-15T23:13:38;23.92;;;11.27;;
41623;SDS011;27319;50.306;18.926;2024-01-15T23:17:37;28.52;;;11.30;;
41623;SDS011;27319;50.306;18.926;2024-01-15T23:20:38;30.58;;;13.45;;
41623;SDS011;27319;50.306;18.926;2024-01-15T23:23:39;23.75;;;11.15;;
41623;SDS011;27319;50.306;18.926;2024-01-15T23:27:40;23.17;;;11.13;;
41623;SDS011;27319;50.306;18.926;2024-01-15T23:31:40;20.50;;;10.30;;
41623;SDS011;27319;50.306;18.926;2024-01-15T23:35:41;22.33;;;8.73;;
41623;SDS011;27319;50.306;18.926;2024-01-15T23:39:42;21.75;;;9.05;;
41623;SDS011;27319;50.306;18.926;2024-01-15T23:43:43;24.20;;;9.68;;
41623;SDS011;27319;50.306;18.926;2024-01-15T23:47:44;18.45;;;8.80;;
41623;SDS011;27319;50.306;18.926;2024-01-15T23:51:45;18.00;;;7.88;;
41623;SDS011;27319;50.306;18.926;2024-01-15T23:55:46;20.33;;;8.98;;
41623;SDS011;27319;50.306;18.926;2024-01-15T23:58:46;21.83;;;9.85;;
